Weather - Helsinki Query any day in the database

Current weather  

Weather data for a selected day (2006-01-01 -2020-10-30)
Enter date:     <-     scroll days         ->
day curves
Low temperature°C -25.906:00
High temperature°C -9.723:30
Low wind chill°C -32.908:30
Average temperature°C -19.0 
High wind speed (10 min) m/s 4.716:00
Low pressurehPa 1012.923:30
High pressurehPa 1018.900:00
Low R.H% 8004:30
High R.H% 9323:00
Maximum snow depthcm 3323:30
Day weather data as a table
Date Time Temp
°C
Chill
°C
Pressure
hPA
Wind
m/s
Hum
%
Precip
mm
2019-01-22 23:30:00 -9.7  -16.1  1012.9 3.9 92 -
2019-01-22 23:00:00 -12.9  -20.2  1013.2 4.0 93 -
2019-01-22 22:30:00 -13.9  -20.2  1013.4 3.0 90 -
2019-01-22 22:00:00 -13.8  -19.1  1013.6 2.3 90 -
2019-01-22 21:30:00 -13.5  -18.2  1014.0 2.0 90 -
2019-01-22 21:00:00 -13.8  -18.6  1014.2 2.0 91 -
2019-01-22 20:30:00 -14.4  -20.1  1014.3 2.5 90 -
2019-01-22 20:00:00 -14.0  -17.2  1014.4 1.3 90 -
2019-01-22 19:30:00 -14.6  -18.7  1014.5 1.6 89 -
2019-01-22 19:00:00 -14.4  -18.9  1014.7 1.8 90 -
2019-01-22 18:30:00 -15.0  -19.3  1014.6 1.7 90 -
2019-01-22 18:00:00 -14.2  -18.8  1014.9 1.9 90 -
2019-01-22 17:30:00 -14.2  -17.2  1015.0 1.2 90 -
2019-01-22 17:00:00 -13.4  -18.1  1014.8 2.0 92 -
2019-01-22 16:30:00 -14.5  -20.2  1015.1 2.5 87 -
2019-01-22 16:00:00 -13.3  -21.3  1015.4 4.7 91 -
2019-01-22 15:30:00 -13.0  -15.6  1015.5 1.1 89 -
2019-01-22 15:00:00 -14.8  -18.9  1015.6 1.6 89 -
2019-01-22 14:30:00 -15.3  -17.4  1015.7 0.9 89 -
2019-01-22 14:00:00 -14.9  -18.0  1015.9 1.2 88 -
2019-01-22 13:30:00 -15.3  -17.0  1016.2 0.8 87 -
2019-01-22 13:00:00 -15.0  -16.7  1016.4 0.8 87 -
2019-01-22 12:30:00 -17.1  -19.0  1016.7 0.8 87 -
2019-01-22 12:00:00 -19.9  -22.5  1017.0 0.9 84 -
2019-01-22 11:30:00 -21.2  -24.7  1017.2 1.1 83 -
2019-01-22 11:00:00 -20.4  -21.6  1016.9 0.6 84 -
2019-01-22 10:30:00 -22.1  -26.7  1017.2 1.4 83 -
2019-01-22 10:00:00 -23.7  -30.1  1017.1 2.0 82 -
2019-01-22 09:30:00 -24.1  -30.8  1017.1 2.1 81 -
2019-01-22 09:00:00 -23.8  -27.6  1017.1 1.1 82 -
2019-01-22 08:30:00 -24.9  -32.9  1017.2 2.7 81 -
2019-01-22 08:00:00 -25.4  -32.7  1017.1 2.3 80 -
2019-01-22 07:30:00 -23.8  -32.1  1017.4 3.0 83 -
2019-01-22 07:00:00 -25.0  -30.6  1017.4 1.6 81 -
2019-01-22 06:30:00 -24.7  -30.2  1017.9 1.6 81 -
2019-01-22 06:00:00 -25.9  -31.0  1018.1 1.4 80 -
2019-01-22 05:30:00 -24.6  -30.4  1018.4 1.7 81 -
2019-01-22 04:30:00 -25.9  -32.4  1018.4 1.9 80 -
2019-01-22 04:00:00 -24.5  -31.5  1018.4 2.2 82 -
2019-01-22 03:30:00 -25.0  -30.0  1018.3 1.4 81 -
2019-01-22 03:00:00 -24.1  -30.6  1018.6 2.0 82 -
2019-01-22 02:30:00 -24.6  -32.0  1018.6 2.4 81 -
2019-01-22 02:00:00 -23.8  -31.2  1018.7 2.5 82 -
2019-01-22 01:30:00 -23.1  -26.0  1018.5 0.9 83 -
2019-01-22 01:00:00 -23.2  -26.9  1018.7 1.1 81 -
2019-01-22 00:30:00 -21.1  -24.6  1018.8 1.1 85 -
2019-01-22 00:00:00 -22.2  -27.4  1018.9 1.6 83 -
Unit conversions: